Time;durP1;ratioP1;P1;durP2;ratioP2;P2;SDS_P1;SDS_P2;PMS_P1;PMS_P2;Temp;Humidity;BMP_temperature;BMP_pressure;BME280_temperature;BME280_humidity;BME280_pressure;Samples;Min_cycle;Max_cycle;Signal;HPM_P1;HPM_P2
2023/08/28 00:00:35;;;;;;;13.20;10.80;;;;;;;25.34;62.33;99864.48;105241;1257;61399;-68
2023/08/28 00:03:02;;;;;;;12.50;10.70;;;;;;;25.28;62.31;99864.56;105185;1258;64450;-68
2023/08/28 00:05:31;;;;;;;12.90;10.80;;;;;;;25.20;62.24;99864.22;105259;1257;59720;-67
2023/08/28 00:07:59;;;;;;;12.10;10.60;;;;;;;25.13;62.21;99868.85;105346;1259;59638;-65
2023/08/28 00:10:26;;;;;;;12.00;10.70;;;;;;;25.07;62.27;99870.84;105208;1262;64306;-66
2023/08/28 00:12:53;;;;;;;12.10;10.70;;;;;;;25.05;62.34;99874.56;105211;1260;60110;-66
2023/08/28 00:15:22;;;;;;;13.10;11.40;;;;;;;25.02;62.33;99877.58;105248;1260;63713;-66
2023/08/28 00:17:49;;;;;;;16.10;10.70;;;;;;;25.00;62.09;99874.34;105207;1260;59844;-73
2023/08/28 00:20:17;;;;;;;13.00;10.70;;;;;;;24.95;61.83;99875.23;105161;1267;59634;-71
2023/08/28 00:22:45;;;;;;;13.50;11.20;;;;;;;24.90;61.87;99876.65;105297;1258;64155;-74
2023/08/28 00:25:12;;;;;;;14.10;11.30;;;;;;;24.82;61.88;99882.05;105271;1257;61290;-68
2023/08/28 00:27:40;;;;;;;14.90;11.00;;;;;;;24.75;62.07;99885.67;104936;1257;62527;-66
2023/08/28 00:30:08;;;;;;;13.30;11.20;;;;;;;24.69;62.29;99889.49;105338;1260;59650;-67
2023/08/28 00:32:35;;;;;;;14.10;11.60;;;;;;;24.68;62.37;99892.82;105197;1257;59637;-68
2023/08/28 00:35:05;;;;;;;12.90;10.60;;;;;;;24.68;62.29;99892.40;105279;1260;62866;-68
2023/08/28 00:37:32;;;;;;;14.50;11.50;;;;;;;24.69;62.42;99894.41;104996;1263;60411;-68
2023/08/28 00:40:02;;;;;;;15.30;11.90;;;;;;;24.68;62.54;99893.69;105239;1264;62465;-70
2023/08/28 00:42:30;;;;;;;12.40;10.90;;;;;;;24.65;62.48;99888.96;105447;1262;59733;-68
2023/08/28 00:44:58;;;;;;;12.80;11.40;;;;;;;24.59;62.56;99886.14;105160;1260;59756;-68
2023/08/28 00:47:25;;;;;;;13.20;11.70;;;;;;;24.54;62.55;99883.05;105148;1262;64266;-68
2023/08/28 00:49:53;;;;;;;13.50;11.30;;;;;;;24.51;62.58;99883.11;105230;1257;61363;-68
2023/08/28 00:52:21;;;;;;;13.70;11.20;;;;;;;24.51;62.58;99886.67;105205;1263;62538;-70
2023/08/28 00:54:49;;;;;;;14.10;10.40;;;;;;;24.51;62.45;99888.95;105337;1258;59780;-66
2023/08/28 00:57:16;;;;;;;12.20;10.90;;;;;;;24.51;62.39;99888.77;104917;1263;59693;-66
2023/08/28 00:59:46;;;;;;;15.50;11.30;;;;;;;24.51;62.33;99887.22;105319;1260;64568;-67
2023/08/28 01:02:13;;;;;;;13.00;11.60;;;;;;;24.50;62.23;99889.17;105205;1256;61896;-73
2023/08/28 01:04:40;;;;;;;14.20;11.60;;;;;;;24.48;62.14;99886.49;105192;1257;63714;-70
2023/08/28 01:07:22;;;;;;;16.60;12.00;;;;;;;24.44;62.17;99880.25;105126;1261;60738;-68
2023/08/28 01:10:11;;;;;;;14.10;11.90;;;;;;;24.43;62.19;99877.33;105405;1261;60256;-70
2023/08/28 01:13:03;;;;;;;16.40;12.20;;;;;;;24.43;62.31;99885.65;105179;1260;64296;-70
2023/08/28 01:15:31;;;;;;;15.50;12.70;;;;;;;24.41;62.48;99882.69;105464;1258;61331;-60
2023/08/28 01:18:00;;;;;;;17.20;12.40;;;;;;;24.40;62.55;99878.36;105451;1257;64759;-60
2023/08/28 01:20:29;;;;;;;17.50;14.20;;;;;;;24.40;62.67;99881.48;106319;1257;59567;-60
2023/08/28 01:23:12;;;;;;;17.10;13.30;;;;;;;24.40;62.72;99876.27;106478;1255;59564;-60
2023/08/28 01:25:40;;;;;;;20.20;14.90;;;;;;;24.40;62.62;99871.41;105272;1257;64103;-60
2023/08/28 01:28:08;;;;;;;22.60;15.30;;;;;;;24.42;62.54;99873.50;105304;1261;61383;-60
2023/08/28 01:30:35;;;;;;;19.20;15.00;;;;;;;24.44;62.60;99873.20;105180;1261;63749;-61
2023/08/28 01:33:03;;;;;;;21.60;15.20;;;;;;;24.44;62.48;99871.45;105191;1261;59701;-60
2023/08/28 01:35:32;;;;;;;21.50;16.40;;;;;;;24.44;62.48;99880.35;105237;1258;60152;-59
2023/08/28 01:38:12;;;;;;;21.10;17.00;;;;;;;24.41;62.59;99880.06;105027;1257;62900;-60
2023/08/28 01:40:46;;;;;;;18.90;14.90;;;;;;;24.38;62.70;99879.11;105399;1256;61524;-60
2023/08/28 01:43:15;;;;;;;17.80;15.10;;;;;;;24.38;62.91;99878.78;105179;1257;63824;-57
2023/08/28 01:45:42;;;;;;;18.10;14.70;;;;;;;24.40;63.05;99883.46;105021;1264;60659;-59
2023/08/28 01:48:10;;;;;;;22.70;14.20;;;;;;;24.42;62.92;99882.80;105148;1263;59644;-59
2023/08/28 01:50:37;;;;;;;18.40;13.70;;;;;;;24.43;62.80;99875.52;105084;1258;62837;-60
2023/08/28 01:53:05;;;;;;;18.50;14.20;;;;;;;24.42;62.86;99876.81;105047;1263;60107;-60
2023/08/28 01:55:45;;;;;;;16.80;14.00;;;;;;;24.41;62.87;99875.34;105136;1260;63744;-59
2023/08/28 01:58:13;;;;;;;17.30;14.60;;;;;;;24.39;62.94;99875.37;105214;1257;59762;-60
2023/08/28 02:00:41;;;;;;;17.00;13.40;;;;;;;24.36;63.12;99872.92;105088;1259;59765;-58
2023/08/28 02:03:09;;;;;;;15.60;11.80;;;;;;;24.35;63.42;99873.10;105202;1260;62966;-60
2023/08/28 02:05:37;;;;;;;19.60;13.80;;;;;;;24.36;63.68;99870.98;105174;1263;60116;-59
2023/08/28 02:08:05;;;;;;;16.70;12.90;;;;;;;24.36;63.93;99868.62;105071;1260;63739;-60
2023/08/28 02:10:32;;;;;;;18.10;14.30;;;;;;;24.38;63.96;99868.84;104855;1263;59775;-59
2023/08/28 02:13:00;;;;;;;17.80;13.70;;;;;;;24.39;64.02;99867.94;105147;1258;59766;-60
2023/08/28 02:15:28;;;;;;;17.70;14.60;;;;;;;24.38;64.15;99872.55;105246;1263;62905;-59
2023/08/28 02:17:56;;;;;;;18.40;15.10;;;;;;;24.35;64.25;99871.65;105110;1262;60073;-60
2023/08/28 02:20:23;;;;;;;20.80;15.70;;;;;;;24.34;64.45;99878.45;105145;1263;63701;-59
2023/08/28 02:22:51;;;;;;;19.20;13.90;;;;;;;24.35;64.50;99875.91;105161;1259;59775;-59
2023/08/28 02:25:20;;;;;;;18.80;15.00;;;;;;;24.38;64.70;99873.40;105152;1260;59605;-59
2023/08/28 02:27:49;;;;;;;19.10;14.20;;;;;;;24.39;64.85;99869.02;105121;1260;64157;-62
2023/08/28 02:30:17;;;;;;;20.50;15.70;;;;;;;24.38;64.76;99869.86;105835;1257;61354;-55
2023/08/28 02:32:45;;;;;;;19.80;14.30;;;;;;;24.37;64.98;99866.00;105271;1258;63886;-60
2023/08/28 02:35:13;;;;;;;17.90;13.90;;;;;;;24.39;65.03;99862.84;105193;1261;60501;-60
2023/08/28 02:37:40;;;;;;;16.10;13.70;;;;;;;24.42;65.00;99865.77;105271;1257;60514;-60
2023/08/28 02:40:11;;;;;;;19.20;14.10;;;;;;;24.43;64.83;99863.02;105250;1257;64933;-61
2023/08/28 02:42:39;;;;;;;15.30;13.20;;;;;;;24.43;64.90;99863.81;105167;1257;61356;-60
2023/08/28 02:45:07;;;;;;;17.60;15.00;;;;;;;24.41;64.82;99865.77;105081;1257;62646;-60
2023/08/28 02:47:36;;;;;;;17.40;14.00;;;;;;;24.36;64.95;99859.64;105945;1257;60559;-62
2023/08/28 02:50:04;;;;;;;18.40;13.30;;;;;;;24.34;64.96;99856.24;105332;1262;60865;-61
2023/08/28 02:52:32;;;;;;;17.60;13.50;;;;;;;24.34;65.01;99860.21;105574;1254;64884;-61
2023/08/28 02:55:00;;;;;;;18.90;13.90;;;;;;;24.34;65.09;99859.67;105157;1256;62015;-61
2023/08/28 02:57:27;;;;;;;17.40;13.50;;;;;;;24.31;65.08;99859.82;105121;1260;72667;-66
2023/08/28 02:59:55;;;;;;;19.60;14.70;;;;;;;24.29;65.10;99856.02;105151;1261;60539;-66
2023/08/28 03:02:22;;;;;;;16.10;12.40;;;;;;;24.26;65.11;99855.39;105016;1257;60732;-67
2023/08/28 03:04:50;;;;;;;24.20;14.00;;;;;;;24.25;65.14;99858.44;105074;1260;65011;-67
2023/08/28 03:07:17;;;;;;;17.90;12.90;;;;;;;24.25;65.11;99858.70;105409;1257;61356;-67
2023/08/28 03:09:45;;;;;;;16.30;12.90;;;;;;;24.23;65.10;99860.67;105071;1257;63674;-67
2023/08/28 03:12:13;;;;;;;18.00;12.60;;;;;;;24.19;65.24;99862.54;105264;1257;60536;-69
2023/08/28 03:14:41;;;;;;;15.40;12.90;;;;;;;24.15;65.33;99864.20;105041;1257;62076;-68
2023/08/28 03:17:10;;;;;;;17.60;13.80;;;;;;;24.10;65.46;99864.76;105549;1260;65132;-64
2023/08/28 03:19:41;;;;;;;15.30;12.90;;;;;;;24.08;65.59;99860.68;105295;1260;60651;-67
2023/08/28 03:22:08;;;;;;;15.30;11.90;;;;;;;24.09;65.52;99854.17;105222;1263;72262;-56
2023/08/28 03:24:36;;;;;;;15.40;12.50;;;;;;;24.10;65.62;99852.52;105130;1257;60562;-56
2023/08/28 03:27:03;;;;;;;14.20;12.00;;;;;;;24.08;65.66;99854.89;105011;1262;60483;-61
2023/08/28 03:29:31;;;;;;;13.60;11.90;;;;;;;24.05;65.72;99858.27;105114;1254;73823;-63
2023/08/28 03:31:58;;;;;;;15.60;12.10;;;;;;;24.00;65.75;99856.69;105145;1260;60451;-66
2023/08/28 03:34:26;;;;;;;15.50;12.20;;;;;;;23.94;65.75;99849.27;105194;1258;63723;-65
2023/08/28 03:36:53;;;;;;;13.60;10.50;;;;;;;23.93;65.70;99846.29;105071;1262;60463;-61
2023/08/28 03:39:21;;;;;;;14.60;11.70;;;;;;;23.95;65.65;99845.05;105450;1254;60611;-64
2023/08/28 03:41:49;;;;;;;14.00;11.60;;;;;;;23.96;65.50;99842.27;105408;1254;64973;-61
2023/08/28 03:44:17;;;;;;;17.70;13.40;;;;;;;23.94;65.48;99839.75;105177;1258;61289;-59
2023/08/28 03:47:06;;;;;;;16.80;13.00;;;;;;;23.90;65.42;99836.68;105263;1257;63727;-66
2023/08/28 03:49:34;;;;;;;16.90;13.10;;;;;;;23.87;65.30;99834.34;105420;1258;60549;-64
2023/08/28 03:52:27;;;;;;;20.40;14.70;;;;;;;23.86;65.41;99834.96;105144;1257;60096;-66
2023/08/28 03:54:55;;;;;;;18.50;14.60;;;;;;;23.86;65.18;99837.11;104404;1267;64949;-64
2023/08/28 03:57:23;;;;;;;20.20;15.50;;;;;;;23.88;65.04;99838.24;104629;1261;61536;-64
2023/08/28 03:59:52;;;;;;;24.20;16.10;;;;;;;23.89;64.93;99841.66;105243;1264;63800;-64
2023/08/28 04:06:12;;;;;;;19.30;15.30;;;;;;;23.96;64.97;99835.67;104559;1261;60361;-65
2023/08/28 04:08:40;;;;;;;22.00;16.50;;;;;;;24.04;64.63;99832.49;104392;1261;64990;-69
2023/08/28 04:11:07;;;;;;;19.30;16.50;;;;;;;24.09;64.47;99832.05;104349;1260;61335;-66
2023/08/28 04:13:37;;;;;;;25.90;18.70;;;;;;;24.12;64.43;99830.54;104095;1268;62532;-69
2023/08/28 04:16:06;;;;;;;23.80;18.70;;;;;;;24.16;64.42;99828.91;104280;1263;60555;-61
2023/08/28 04:18:33;;;;;;;22.30;17.00;;;;;;;24.18;64.38;99826.73;104422;1261;60553;-67
2023/08/28 04:21:04;;;;;;;22.60;18.00;;;;;;;24.22;64.31;99824.25;104417;1266;66304;-63
2023/08/28 04:23:32;;;;;;;33.10;22.40;;;;;;;24.29;64.45;99823.16;104977;1261;61384;-64
2023/08/28 04:26:00;;;;;;;30.80;21.20;;;;;;;24.36;64.43;99821.41;104626;1260;63713;-71
2023/08/28 04:28:29;;;;;;;29.50;21.40;;;;;;;24.43;64.30;99822.02;105287;1257;60461;-73
2023/08/28 04:30:57;;;;;;;28.60;20.00;;;;;;;24.48;64.25;99822.80;105206;1257;60562;-61
2023/08/28 04:33:26;;;;;;;30.80;21.30;;;;;;;24.51;64.16;99816.01;104386;1257;67504;-58
2023/08/28 04:35:53;;;;;;;27.40;20.00;;;;;;;24.54;64.24;99814.97;106651;1257;61353;-59
2023/08/28 04:38:22;;;;;;;25.80;19.40;;;;;;;24.58;64.30;99812.98;104883;1262;64315;-59
2023/08/28 04:40:50;;;;;;;24.10;18.80;;;;;;;24.66;64.27;99812.70;104891;1256;60536;-61
2023/08/28 04:43:17;;;;;;;23.70;18.30;;;;;;;24.77;64.27;99817.93;104877;1260;60402;-60
2023/08/28 04:45:45;;;;;;;24.60;18.90;;;;;;;24.88;63.97;99817.40;104813;1262;73828;-54
2023/08/28 04:48:15;;;;;;;22.60;18.50;;;;;;;24.96;63.90;99820.40;106355;1258;60453;-54
2023/08/28 04:51:08;;;;;;;23.20;17.00;;;;;;;25.06;64.01;99818.10;104658;1263;64267;-59
2023/08/28 04:54:01;;;;;;;19.90;17.90;;;;;;;25.16;64.12;99813.98;104934;1260;60385;-55
2023/08/28 04:56:58;;;;;;;20.80;17.50;;;;;;;25.29;64.18;99814.34;105491;1259;59412;-56
2023/08/28 05:00:00;;;;;;;;;;;;;;;25.39;64.05;99814.63;104747;1254;63831;-56
2023/08/28 05:02:30;;;;;;;22.70;18.70;;;;;;;25.47;64.15;99813.98;104872;1255;61411;-56
2023/08/28 05:05:16;;;;;;;21.70;19.20;;;;;;;25.55;64.23;99815.24;105211;1257;63761;-59
2023/08/28 05:07:44;;;;;;;22.00;19.70;;;;;;;25.64;64.39;99815.33;105169;1257;61817;-59
2023/08/28 05:10:11;;;;;;;26.50;18.90;;;;;;;25.72;64.33;99811.67;105019;1262;60396;-58
2023/08/28 05:12:39;;;;;;;21.10;17.70;;;;;;;25.78;64.12;99812.45;105184;1257;67101;-57
2023/08/28 05:15:09;;;;;;;24.70;19.80;;;;;;;25.86;63.79;99808.95;105105;1254;61813;-55
2023/08/28 05:18:16;;;;;;;34.20;18.00;;;;;;;25.92;63.50;99807.95;105106;1260;63885;-55
2023/08/28 05:20:43;;;;;;;;;;;;;;;26.03;63.30;99804.52;104952;1257;60519;-57
2023/08/28 05:23:11;;;;;;;27.40;18.00;;;;;;;26.11;63.02;99801.72;105126;1263;61888;-58
2023/08/28 05:26:13;;;;;;;19.40;16.60;;;;;;;26.16;62.95;99799.49;105000;1254;64938;-60
2023/08/28 05:28:41;;;;;;;20.00;17.10;;;;;;;26.20;62.77;99795.48;105164;1260;60417;-55
2023/08/28 05:31:09;;;;;;;21.00;17.80;;;;;;;26.23;62.55;99796.61;105176;1260;63752;-58
2023/08/28 05:33:36;;;;;;;26.30;16.30;;;;;;;26.29;62.42;99801.26;105289;1259;62177;-59
2023/08/28 05:36:05;;;;;;;18.40;16.10;;;;;;;26.38;62.04;99804.89;105576;1256;60432;-58
2023/08/28 05:38:33;;;;;;;17.20;15.20;;;;;;;26.47;61.67;99807.21;105570;1254;63654;-58
2023/08/28 05:41:00;;;;;;;19.50;17.30;;;;;;;26.56;61.23;99811.45;105112;1262;60458;-56
2023/08/28 05:43:28;;;;;;;21.20;17.30;;;;;;;26.63;60.46;99811.52;105241;1257;63903;-58
2023/08/28 05:45:55;;;;;;;20.10;16.00;;;;;;;26.73;60.28;99814.25;105255;1257;60655;-55
2023/08/28 05:48:23;;;;;;;20.80;17.80;;;;;;;26.77;60.23;99813.53;105274;1257;60594;-59
2023/08/28 05:50:50;;;;;;;21.60;16.70;;;;;;;26.79;60.21;99809.95;105263;1257;63630;-61
2023/08/28 05:53:18;;;;;;;18.40;15.60;;;;;;;26.84;60.12;99806.64;105198;1262;60691;-62
2023/08/28 05:55:46;;;;;;;19.30;17.10;;;;;;;26.92;60.12;99807.56;105311;1258;63697;-61
2023/08/28 05:58:13;;;;;;;21.40;17.50;;;;;;;26.99;60.26;99807.84;105226;1257;60636;-64
2023/08/28 06:00:42;;;;;;;19.30;15.80;;;;;;;27.05;60.87;99805.63;104965;1254;60562;-54
2023/08/28 06:03:09;;;;;;;21.10;16.80;;;;;;;27.09;60.93;99806.48;105304;1254;66281;-57
2023/08/28 06:05:38;;;;;;;22.30;17.90;;;;;;;27.11;60.83;99807.72;105429;1259;61460;-61
2023/08/28 06:08:05;;;;;;;20.70;18.20;;;;;;;27.14;60.77;99805.32;105463;1257;63694;-62
2023/08/28 06:10:38;;;;;;;17.90;15.70;;;;;;;27.15;60.61;99803.46;105267;1254;60555;-60
2023/08/28 06:13:06;;;;;;;19.90;17.00;;;;;;;27.22;60.35;99797.19;105223;1259;60373;-58
2023/08/28 06:15:34;;;;;;;19.00;15.60;;;;;;;27.29;60.01;99796.48;105471;1254;63750;-60
2023/08/28 06:18:02;;;;;;;24.90;17.30;;;;;;;27.35;59.77;99799.50;104854;1254;61411;-56
2023/08/28 06:20:30;;;;;;;20.40;16.90;;;;;;;27.39;59.77;99805.83;105972;1260;62558;-58
2023/08/28 06:22:58;;;;;;;19.70;16.70;;;;;;;27.43;59.65;99803.19;105064;1260;60655;-54
2023/08/28 06:25:25;;;;;;;19.60;17.60;;;;;;;27.48;59.45;99804.95;105081;1260;60380;-55
2023/08/28 06:27:53;;;;;;;22.60;17.40;;;;;;;27.53;59.18;99807.29;104995;1257;64938;-55
2023/08/28 06:30:21;;;;;;;16.50;14.80;;;;;;;27.62;58.73;99811.08;105155;1260;61421;-55
2023/08/28 06:32:48;;;;;;;19.80;15.30;;;;;;;27.72;58.44;99811.27;104988;1256;63180;-56
2023/08/28 06:35:16;;;;;;;19.20;16.80;;;;;;;27.80;58.03;99812.18;104863;1257;60488;-55
2023/08/28 06:37:44;;;;;;;23.20;16.10;;;;;;;27.86;57.58;99808.25;105136;1255;60454;-58
2023/08/28 06:40:12;;;;;;;17.90;15.30;;;;;;;27.93;57.41;99807.70;105402;1256;67512;-54
2023/08/28 06:42:39;;;;;;;16.30;14.60;;;;;;;28.00;57.45;99803.37;105711;1257;61552;-55
2023/08/28 06:45:08;;;;;;;20.40;16.30;;;;;;;28.06;57.49;99799.11;105332;1257;63753;-63
2023/08/28 06:47:36;;;;;;;19.10;13.90;;;;;;;28.11;57.59;99799.75;105127;1257;60587;-65
2023/08/28 06:50:03;;;;;;;17.80;15.10;;;;;;;28.19;57.19;99805.14;104771;1257;60559;-61
2023/08/28 06:52:56;;;;;;;14.80;13.20;;;;;;;28.28;56.92;99807.14;108231;1256;63688;-61
2023/08/28 06:55:27;;;;;;;21.90;16.80;;;;;;;28.38;56.36;99810.17;104218;1270;61396;-66
2023/08/28 06:57:55;;;;;;;17.40;15.60;;;;;;;28.43;56.22;99810.22;104893;1258;62484;-63
2023/08/28 07:00:22;;;;;;;20.30;16.50;;;;;;;28.45;55.96;99807.92;105109;1256;60821;-66
2023/08/28 07:02:56;;;;;;;15.80;14.10;;;;;;;28.45;55.51;99807.48;105173;1258;60506;-66
2023/08/28 07:05:26;;;;;;;20.50;15.70;;;;;;;28.45;55.19;99806.41;104625;1255;64910;-64
2023/08/28 07:07:55;;;;;;;17.50;13.00;;;;;;;28.47;55.61;99807.45;104771;1263;61440;-64
2023/08/28 07:10:23;;;;;;;16.80;14.10;;;;;;;28.52;55.44;99805.88;105077;1256;63888;-67
2023/08/28 07:12:50;;;;;;;16.70;14.80;;;;;;;28.59;55.24;99803.80;105214;1257;60537;-67
2023/08/28 07:15:18;;;;;;;21.80;15.70;;;;;;;28.65;55.34;99805.64;105268;1257;60699;-69
2023/08/28 07:17:46;;;;;;;15.80;13.80;;;;;;;28.71;55.28;99806.23;105153;1258;64953;-63
2023/08/28 07:20:14;;;;;;;17.30;15.50;;;;;;;28.78;55.05;99807.77;105132;1257;63621;-63
2023/08/28 07:22:41;;;;;;;18.50;15.50;;;;;;;28.84;55.01;99804.23;105155;1257;63699;-71
2023/08/28 07:25:09;;;;;;;16.00;13.90;;;;;;;28.91;55.04;99805.76;105289;1257;60590;-65
2023/08/28 07:27:37;;;;;;;18.70;15.00;;;;;;;28.98;54.81;99806.73;105168;1256;60393;-71
2023/08/28 07:30:05;;;;;;;15.90;14.20;;;;;;;29.05;55.00;99803.54;105283;1260;65505;-68
2023/08/28 07:32:33;;;;;;;18.00;14.10;;;;;;;29.15;54.60;99803.45;105376;1254;60629;-65
2023/08/28 07:35:00;;;;;;;14.90;13.20;;;;;;;29.25;54.24;99799.16;105185;1257;63707;-64
2023/08/28 07:37:33;;;;;;;16.80;14.50;;;;;;;29.35;54.10;99790.54;105271;1257;60546;-72
2023/08/28 07:40:03;;;;;;;17.80;14.30;;;;;;;29.43;54.09;99788.91;105405;1256;60476;-67
2023/08/28 07:42:30;;;;;;;14.10;12.60;;;;;;;29.49;53.82;99789.86;105304;1256;63805;-65
2023/08/28 07:44:58;;;;;;;17.10;14.00;;;;;;;29.55;54.03;99793.00;104908;1258;61370;-67
2023/08/28 07:47:26;;;;;;;20.10;13.90;;;;;;;29.62;53.36;99791.45;105317;1256;63748;-68
2023/08/28 07:49:54;;;;;;;17.60;14.80;;;;;;;29.71;53.68;99791.55;105231;1260;60565;-68
2023/08/28 07:52:21;;;;;;;15.60;13.90;;;;;;;29.76;53.69;99788.98;105307;1255;60524;-74
2023/08/28 07:54:49;;;;;;;15.80;12.30;;;;;;;29.83;53.15;99784.75;105213;1260;66838;-64
2023/08/28 07:57:17;;;;;;;16.00;14.30;;;;;;;29.93;52.74;99788.14;105120;1257;61444;-68
2023/08/28 07:59:44;;;;;;;15.50;12.90;;;;;;;30.03;51.71;99784.55;105209;1257;63739;-62
2023/08/28 08:02:12;;;;;;;17.60;13.20;;;;;;;30.14;51.12;99780.19;105008;1259;61207;-68
2023/08/28 08:04:40;;;;;;;15.10;11.30;;;;;;;30.23;50.95;99777.43;105240;1256;60569;-68
2023/08/28 08:07:07;;;;;;;14.50;12.50;;;;;;;30.28;50.97;99771.64;105357;1257;64909;-66
2023/08/28 08:09:35;;;;;;;13.80;11.90;;;;;;;30.31;50.88;99768.33;105251;1260;60447;-62
2023/08/28 08:12:03;;;;;;;13.60;12.20;;;;;;;30.35;51.20;99766.07;105275;1256;64445;-60
2023/08/28 08:14:30;;;;;;;14.30;12.20;;;;;;;30.39;51.07;99760.18;105325;1260;60536;-63
2023/08/28 08:16:58;;;;;;;17.40;13.30;;;;;;;30.41;50.86;99765.27;105314;1257;60568;-63
2023/08/28 08:19:25;;;;;;;20.40;13.80;;;;;;;30.39;50.84;99765.34;105154;1257;74020;-70
2023/08/28 08:21:53;;;;;;;13.40;12.00;;;;;;;30.37;50.73;99764.63;105236;1260;61660;-63
2023/08/28 08:24:20;;;;;;;16.70;13.10;;;;;;;30.34;51.27;99767.20;105322;1258;62630;-62
2023/08/28 08:26:49;;;;;;;14.00;11.90;;;;;;;30.33;51.33;99773.27;105371;1257;60537;-63
2023/08/28 08:29:17;;;;;;;14.50;11.80;;;;;;;30.35;51.38;99776.59;105413;1258;61581;-63
2023/08/28 08:31:44;;;;;;;13.70;11.40;;;;;;;30.40;51.41;99777.48;105164;1260;64941;-65
2023/08/28 08:34:12;;;;;;;16.60;13.00;;;;;;;30.44;51.56;99776.19;105096;1259;61851;-72
2023/08/28 08:36:39;;;;;;;15.20;12.20;;;;;;;30.48;51.38;99775.21;105186;1258;63998;-62
2023/08/28 08:39:07;;;;;;;18.20;12.90;;;;;;;30.53;51.50;99773.86;105150;1257;60569;-71
2023/08/28 08:41:36;;;;;;;13.50;11.60;;;;;;;30.62;51.70;99772.52;105241;1256;60539;-72
2023/08/28 08:44:04;;;;;;;14.90;12.20;;;;;;;30.71;50.93;99771.83;105138;1260;64921;-71
2023/08/28 08:46:32;;;;;;;13.30;11.40;;;;;;;30.80;50.78;99770.56;105214;1257;61409;-69
2023/08/28 08:49:00;;;;;;;18.30;13.10;;;;;;;30.87;50.58;99769.91;105111;1257;63816;-65
2023/08/28 08:51:29;;;;;;;15.40;13.90;;;;;;;30.91;49.98;99768.71;105173;1257;60353;-68
2023/08/28 08:54:09;;;;;;;14.40;12.90;;;;;;;30.92;49.52;99767.08;105144;1255;60650;-67
2023/08/28 08:56:36;;;;;;;15.60;12.70;;;;;;;30.91;49.16;99764.80;105171;1257;65057;-68
2023/08/28 08:59:04;;;;;;;15.80;12.70;;;;;;;30.91;49.22;99758.99;105199;1257;61316;-62
2023/08/28 09:01:31;;;;;;;15.70;12.20;;;;;;;30.89;49.73;99758.40;105319;1256;63713;-63
2023/08/28 09:04:02;;;;;;;14.50;12.40;;;;;;;30.87;49.80;99759.80;105204;1262;62709;-65
2023/08/28 09:06:29;;;;;;;17.00;12.50;;;;;;;30.88;49.60;99761.11;105219;1257;60483;-66
2023/08/28 09:08:57;;;;;;;12.60;11.30;;;;;;;30.89;49.14;99757.58;105879;1257;63671;-67
2023/08/28 09:11:28;;;;;;;14.90;11.60;;;;;;;30.90;49.09;99758.06;105294;1260;60381;-68
2023/08/28 09:13:56;;;;;;;13.90;12.40;;;;;;;30.94;49.05;99763.45;105170;1260;63751;-69
2023/08/28 09:16:23;;;;;;;14.10;12.40;;;;;;;30.99;49.10;99767.16;105252;1257;60603;-64
2023/08/28 09:18:51;;;;;;;15.80;12.30;;;;;;;31.02;48.99;99770.36;105739;1257;60528;-69
2023/08/28 09:21:19;;;;;;;15.80;12.80;;;;;;;31.05;48.90;99770.30;105319;1256;64931;-68
2023/08/28 09:23:48;;;;;;;13.50;12.00;;;;;;;31.15;48.73;99770.40;105351;1259;62251;-68
2023/08/28 09:26:20;;;;;;;13.40;11.30;;;;;;;31.27;48.75;99770.55;104820;1264;63727;-67
2023/08/28 09:29:04;;;;;;;13.90;12.40;;;;;;;31.35;48.54;99771.23;105293;1257;60479;-71
2023/08/28 09:31:34;;;;;;;13.70;12.00;;;;;;;31.42;48.32;99767.29;105384;1256;60502;-70
2023/08/28 09:34:03;;;;;;;14.30;11.30;;;;;;;31.48;48.16;99769.39;105237;1257;63792;-71
2023/08/28 09:36:37;;;;;;;17.20;11.80;;;;;;;31.56;47.83;99770.16;105302;1261;61302;-69
2023/08/28 09:39:09;;;;;;;12.20;10.90;;;;;;;31.65;47.91;99768.48;105146;1254;63499;-72
2023/08/28 09:41:40;;;;;;;12.70;10.80;;;;;;;31.72;47.73;99767.27;105346;1261;60835;-67
2023/08/28 09:44:08;;;;;;;15.30;12.40;;;;;;;31.76;47.52;99763.39;105629;1254;60540;-70
2023/08/28 09:46:37;;;;;;;15.20;12.50;;;;;;;31.79;47.83;99763.05;105360;1259;64938;-71
2023/08/28 09:49:05;;;;;;;14.30;11.40;;;;;;;31.81;48.19;99761.35;105474;1260;60642;-70
2023/08/28 09:51:50;;;;;;;13.20;11.40;;;;;;;31.84;48.27;99759.09;105323;1256;63743;-64
2023/08/28 09:54:18;;;;;;;14.00;11.70;;;;;;;31.89;48.46;99761.36;105265;1259;60419;-70
2023/08/28 09:56:45;;;;;;;14.80;12.40;;;;;;;31.92;48.73;99760.75;105341;1255;60620;-69
2023/08/28 09:59:15;;;;;;;14.90;12.30;;;;;;;31.95;48.36;99757.69;105210;1255;63628;-70
2023/08/28 10:01:42;;;;;;;13.60;12.20;;;;;;;31.98;48.70;99760.30;105331;1254;61436;-70
2023/08/28 10:04:12;;;;;;;14.80;11.60;;;;;;;32.00;49.10;99758.80;105305;1256;63762;-70
2023/08/28 10:06:50;;;;;;;12.30;10.40;;;;;;;32.05;49.00;99753.89;105267;1257;60521;-69
2023/08/28 10:09:19;;;;;;;13.50;11.20;;;;;;;32.11;48.90;99750.66;105309;1260;60591;-65
2023/08/28 10:11:48;;;;;;;14.50;11.50;;;;;;;32.19;48.43;99749.41;106907;1254;65546;-71
2023/08/28 10:14:42;;;;;;;16.30;11.20;;;;;;;32.27;48.06;99748.98;105665;1254;61920;-70
2023/08/28 10:18:02;;;;;;;11.90;10.70;;;;;;;32.35;46.77;99743.59;105337;1257;63753;-67
2023/08/28 10:21:01;;;;;;;13.90;10.90;;;;;;;32.46;46.02;99739.52;105230;1255;60558;-65
2023/08/28 10:23:29;;;;;;;12.20;9.30;;;;;;;32.55;44.66;99740.37;105142;1262;60809;-65
2023/08/28 10:25:56;;;;;;;13.00;9.50;;;;;;;32.61;43.77;99738.76;105337;1254;64956;-67
2023/08/28 10:28:24;;;;;;;12.50;8.40;;;;;;;32.67;43.20;99741.39;105133;1254;257112;-74
2023/08/28 10:31:56;;;;;;;13.20;8.90;;;;;;;32.54;43.12;99744.31;102507;1292;601229;-68
2023/08/28 10:34:23;;;;;;;11.20;8.80;;;;;;;32.79;42.82;99744.89;104837;1267;59343;-72
2023/08/28 10:36:51;;;;;;;12.00;8.80;;;;;;;32.88;42.49;99748.84;104888;1261;59283;-68
2023/08/28 10:39:21;;;;;;;13.40;10.10;;;;;;;32.94;42.19;99746.34;104907;1264;63956;-73
2023/08/28 10:41:49;;;;;;;12.60;8.70;;;;;;;32.97;42.33;99748.60;105118;1258;61382;-70
2023/08/28 10:44:17;;;;;;;15.70;8.80;;;;;;;33.01;42.27;99747.90;105426;1261;63726;-67
2023/08/28 10:46:44;;;;;;;15.50;9.20;;;;;;;33.05;41.89;99748.41;105005;1256;233912;-66
2023/08/28 10:49:12;;;;;;;10.30;8.60;;;;;;;33.10;41.67;99743.06;105254;1258;59368;-70
2023/08/28 10:51:41;;;;;;;13.80;10.30;;;;;;;33.18;41.93;99740.98;105206;1260;63327;-68
2023/08/28 10:54:09;;;;;;;16.10;9.60;;;;;;;33.26;41.61;99738.12;105097;1263;60425;-67
2023/08/28 10:56:38;;;;;;;11.50;8.60;;;;;;;33.35;40.91;99732.40;105426;1256;63771;-70
2023/08/28 10:59:18;;;;;;;14.60;9.40;;;;;;;33.47;40.76;99730.29;105308;1260;59746;-66
2023/08/28 11:01:58;;;;;;;13.90;8.90;;;;;;;33.61;40.43;99725.44;105208;1257;59702;-71
2023/08/28 11:04:39;;;;;;;12.80;9.30;;;;;;;33.72;40.16;99717.52;105320;1256;62824;-71
2023/08/28 11:07:22;;;;;;;10.80;8.30;;;;;;;33.81;39.98;99713.84;105954;1256;61399;-69
2023/08/28 11:09:50;;;;;;;11.00;8.30;;;;;;;33.89;39.31;99714.44;105259;1259;64267;-70
2023/08/28 11:12:18;;;;;;;14.60;9.30;;;;;;;33.95;39.00;99716.67;105154;1257;59752;-71
2023/08/28 11:14:52;;;;;;;12.60;9.80;;;;;;;33.96;38.39;99715.77;105260;1257;59602;-72
2023/08/28 11:17:21;;;;;;;12.20;8.20;;;;;;;33.99;38.71;99711.95;105237;1257;64781;-73
2023/08/28 11:19:54;;;;;;;14.00;8.60;;;;;;;34.04;39.09;99715.92;105182;1257;61380;-72
2023/08/28 11:22:39;;;;;;;11.60;9.30;;;;;;;34.09;39.42;99713.40;105199;1258;63861;-70
2023/08/28 11:25:12;;;;;;;13.50;9.50;;;;;;;34.15;39.27;99709.04;105133;1257;60072;-67
2023/08/28 11:27:49;;;;;;;12.50;9.90;;;;;;;34.21;39.02;99709.95;105367;1260;59637;-67